Latest Weather Observations for Longerenong

IDV60801

Issued at 6:31 pm EST Thursday 3 September 2015 (issued every 30 minutes, with the page automatically refreshed every 10 minutes)

About weather observations | Map of weather stations | Latest weather observations for VIC | Other Formats
Station Details ID: 079028 Name: LONGERENONG Lat: -36.67 Lon: 142.30 Height: 133.0 m
Data from the previous 72 hours. | See also: Recent months at Longerenong
Date/Time
EST
Temp
°C
App
Temp
°C
Dew
Point
Rel
Hum
%
Delta-T
°C
Wind Press
QNH
hPa
Press
MSL
hPa
Rain
since 9 am
mm
Dir
 
Spd
km/h
Gust
km/h
Spd
kts
Gust
kts
03/06:30pm 11.0 8.0 7.9 81 1.5 S 13 17 7 9 - - 0.2
03/06:00pm 11.8 7.6 8.3 79 1.7 S 20 30 11 16 - - 0.2
03/05:30pm 12.9 10.1 8.6 75 2.2 S 13 22 7 12 - - 0.2
03/05:00pm 13.4 9.6 8.9 74 2.3 S 19 28 10 15 - - 0.2
03/04:30pm 13.8 10.3 10.2 79 1.9 S 19 24 10 13 - - 0.2
03/04:00pm 13.7 9.9 9.9 78 2.0 S 20 28 11 15 - - 0.2
03/03:30pm 14.3 10.7 9.7 74 2.4 S 19 26 10 14 - - 0.2
03/03:00pm 14.4 10.7 10.0 75 2.3 S 20 28 11 15 - - 0.2
03/02:30pm 13.5 11.3 10.9 84 1.4 SSW 13 19 7 10 - - 0.2
03/02:00pm 12.9 8.9 10.3 84 1.4 S 22 30 12 16 - - 0.2
03/01:30pm 14.9 11.2 9.5 70 2.8 SSW 19 26 10 14 - - 0.2
03/01:00pm 15.4 11.8 10.0 70 2.8 SSW 19 24 10 13 - - 0.2
03/12:30pm 15.7 11.2 10.0 69 3.0 S 24 32 13 17 - - 0.2
03/12:00pm 14.2 10.4 9.8 75 2.3 S 20 28 11 15 - - 0.2
03/11:30am 14.4 11.4 10.6 78 2.0 S 17 26 9 14 - - 0.2
03/11:00am 13.4 9.7 10.0 80 1.8 S 20 28 11 15 - - 0.2
03/10:30am 13.1 9.3 9.9 81 1.7 S 20 30 11 16 - - 0.2
03/10:00am 13.3 9.6 10.1 81 1.7 SSW 20 30 11 16 - - 0.0
03/09:30am 12.3 8.7 9.7 84 1.3 SSW 19 28 10 15 - - 0.0
03/09:00am 11.4 8.6 10.0 91 0.7 SSW 15 20 8 11 - - 15.6
03/08:30am 10.9 8.8 9.7 92 0.6 S 11 17 6 9 - - 15.6
03/08:00am 10.6 8.4 9.2 91 0.7 SSE 11 17 6 9 - - 15.6
03/07:30am 9.8 8.3 9.0 95 0.4 SSW 7 9 4 5 - - 15.6
03/07:00am 9.4 7.4 8.6 95 0.4 SSW 9 13 5 7 - - 15.6
03/06:30am 9.5 6.3 8.4 93 0.5 S 15 20 8 11 - - 15.6
03/06:00am 9.5 6.0 8.6 94 0.4 S 17 20 9 11 - - 15.6
03/05:30am 9.5 5.5 8.4 93 0.5 S 19 26 10 14 - - 15.6
03/05:00am 9.3 6.1 8.5 95 0.4 SSW 15 20 8 11 - - 15.6
03/04:30am 9.3 6.5 8.7 96 0.3 SSW 13 19 7 10 - - 15.6
03/04:00am 9.3 6.5 8.7 96 0.3 SSW 13 17 7 9 - - 15.6
03/03:30am 9.3 6.2 8.7 96 0.3 SSW 15 20 8 11 - - 15.6
03/03:00am 9.2 6.4 8.6 96 0.3 SSW 13 19 7 10 - - 15.6
03/02:30am 9.1 6.3 8.5 96 0.3 SSW 13 17 7 9 - - 15.6
03/02:00am 8.9 5.7 8.3 96 0.3 SSW 15 20 8 11 - - 15.6
03/01:30am 8.8 5.2 8.4 97 0.2 SSW 17 26 9 14 - - 15.6
03/01:00am 8.6 5.7 8.3 98 0.1 SSW 13 19 7 10 - - 15.6
03/12:30am 8.2 5.2 7.9 98 0.1 SSW 13 17 7 9 - - 15.6
03/12:00am 9.1 6.7 8.8 98 0.1 SSW 11 17 6 9 - - 15.6
 
Date/Time
EST
Temp
°C
App
Temp
°C
Dew
Point
Rel
Hum
%
Delta-T
°C
Wind Press
QNH
hPa
Press
MSL
hPa
Rain
since 9 am
mm
Dir
 
Spd
km/h
Gust
km/h
Spd
kts
Gust
kts
02/11:30pm 9.6 7.8 9.5 99 0.1 SSW 9 13 5 7 - - 15.6
02/11:00pm 9.4 8.1 9.3 99 0.0 SSW 6 7 3 4 - - 15.6
02/10:30pm 9.2 8.3 9.1 99 0.0 S 4 6 2 3 - - 15.6
02/10:00pm 9.4 9.2 9.1 98 0.1 CALM 0 6 0 3 - - 15.6
02/09:30pm 9.4 8.5 9.1 98 0.1 S 4 4 2 2 - - 15.6
02/09:00pm 9.4 8.8 9.1 98 0.1 SSE 2 4 1 2 - - 15.6
02/08:30pm 9.7 8.8 9.4 98 0.2 E 4 4 2 2 - - 15.6
02/08:00pm 9.8 8.9 9.3 97 0.2 ENE 4 4 2 2 - - 15.6
02/07:30pm 9.9 9.8 9.4 97 0.3 CALM 0 2 0 1 - - 15.6
02/07:00pm 9.9 9.4 9.4 97 0.3 E 2 6 1 3 - - 15.6
02/06:30pm 10.0 9.9 9.5 97 0.3 CALM 0 0 0 0 - - 15.6
02/06:00pm 10.0 8.8 9.5 97 0.3 ENE 6 9 3 5 - - 15.4
02/05:30pm 10.0 8.8 9.5 97 0.3 NE 6 11 3 6 - - 14.8
02/05:00pm 9.9 8.4 9.3 96 0.3 ENE 7 11 4 6 - - 14.6
02/04:30pm 9.9 7.2 9.1 95 0.4 ENE 13 20 7 11 - - 14.0
02/04:00pm 10.1 7.1 9.3 95 0.4 E 15 24 8 13 - - 13.4
02/03:30pm 10.0 7.4 9.2 95 0.4 E 13 19 7 10 - - 13.4
02/03:00pm 9.9 7.3 9.3 96 0.3 E 13 19 7 10 - - 13.4
02/02:30pm 9.6 8.1 9.1 97 0.2 ENE 7 11 4 6 - - 13.2
02/02:00pm 9.4 7.8 8.9 97 0.2 NNE 7 11 4 6 - - 11.8
02/01:30pm 9.6 7.7 9.1 97 0.2 N 9 13 5 7 - - 10.2
02/01:00pm 9.7 7.8 8.9 95 0.4 NNE 9 15 5 8 - - 7.2
02/12:30pm 9.7 7.7 8.6 93 0.5 NE 9 17 5 9 - - 5.2
02/12:00pm 9.9 7.6 9.0 94 0.4 NE 11 19 6 10 - - 4.2
02/11:30am 9.7 6.9 8.6 93 0.5 NE 13 22 7 12 - - 3.8
02/11:00am 9.8 6.6 8.4 91 0.7 NE 15 24 8 13 - - 3.6
02/10:30am 9.4 6.2 8.3 93 0.5 NE 15 24 8 13 - - 3.4
02/10:00am 9.3 5.6 8.1 92 0.6 NE 17 28 9 15 - - 2.6
02/09:30am 9.4 6.8 7.7 89 0.8 NNE 11 19 6 10 - - 1.2
02/09:00am 9.8 6.9 6.5 80 1.5 NNE 11 17 6 9 - - 0.2
02/08:30am 10.5 6.6 5.5 71 2.3 NNE 15 24 8 13 - - 0.0
02/08:00am 10.4 6.4 5.0 69 2.5 NE 15 24 8 13 - - 0.0
02/07:30am 10.0 5.6 4.8 70 2.4 ENE 17 22 9 12 - - 0.0
02/07:00am 10.1 6.4 4.5 68 2.5 ENE 13 20 7 11 - - 0.0
02/06:30am 10.4 6.6 3.7 63 3.0 ENE 13 22 7 12 - - 0.0
02/06:00am 10.5 6.6 3.5 62 3.1 ENE 13 20 7 11 - - 0.0
02/05:30am 10.2 6.3 3.5 63 2.9 ENE 13 20 7 11 - - 0.0
02/05:00am 10.7 6.8 3.3 60 3.3 NE 13 20 7 11 - - 0.0
02/04:30am 10.6 7.0 3.2 60 3.2 NE 11 19 6 10 - - 0.0
02/04:00am 10.6 7.0 2.9 59 3.4 NE 11 20 6 11 - - 0.0
02/03:30am 10.6 6.6 2.9 59 3.4 NE 13 19 7 10 - - 0.0
02/03:00am 11.0 7.0 2.6 56 3.6 NE 13 22 7 12 - - 0.0
02/02:30am 11.0 7.0 2.6 56 3.6 NE 13 20 7 11 - - 0.0
02/02:00am 10.8 6.8 2.6 57 3.6 NE 13 24 7 13 - - 0.0
02/01:30am 10.7 6.6 2.5 57 3.5 NE 13 20 7 11 - - 0.0
02/01:00am 10.6 6.6 2.7 58 3.4 NE 13 20 7 11 - - 0.0
02/12:30am 10.7 6.3 2.8 58 3.4 NE 15 20 8 11 - - 0.0
02/12:00am 10.1 6.1 2.7 60 3.2 ENE 13 19 7 10 - - 0.0
 
Date/Time
EST
Temp
°C
App
Temp
°C
Dew
Point
Rel
Hum
%
Delta-T
°C
Wind Press
QNH
hPa
Press
MSL
hPa
Rain
since 9 am
mm
Dir
 
Spd
km/h
Gust
km/h
Spd
kts
Gust
kts
01/11:30pm 9.7 5.7 2.6 61 3.0 ENE 13 20 7 11 - - 0.0
01/11:00pm 9.3 5.5 1.9 60 3.1 ENE 11 15 6 8 - - 0.0
01/10:30pm 10.1 6.3 2.0 57 3.4 NE 11 17 6 9 - - 0.0
01/10:00pm 10.9 7.1 2.0 54 3.8 NE 11 17 6 9 - - 0.0
01/09:30pm 11.4 7.2 1.6 51 4.2 ENE 13 17 7 9 - - 0.0
01/09:00pm 11.8 7.6 1.4 49 4.4 ENE 13 20 7 11 - - 0.0
01/08:30pm 12.5 8.7 1.8 48 4.6 ENE 11 17 6 9 - - 0.0
01/08:00pm 13.1 9.3 1.8 46 4.9 ENE 11 15 6 8 - - 0.0
01/07:30pm 13.6 10.2 1.6 44 5.2 ENE 9 13 5 7 - - 0.0
01/07:00pm 14.6 10.8 1.8 42 5.6 ENE 11 15 6 8 - - 0.0
01/06:30pm 15.8 12.4 1.9 39 6.2 ENE 9 13 5 7 - - 0.0
01/06:00pm 17.0 13.9 1.4 35 7.0 NE 7 13 4 7 - - 0.0
01/05:30pm 18.4 14.2 1.9 33 7.5 NE 13 20 7 11 - - 0.0
01/05:00pm 18.7 14.5 1.7 32 7.7 NNE 13 20 7 11 - - 0.0
01/04:30pm 19.9 15.3 1.8 30 8.3 NNE 15 22 8 12 - - 0.0
01/04:00pm 19.2 14.7 2.1 32 7.9 NNE 15 20 8 11 - - 0.0
01/03:30pm 19.7 15.2 2.1 31 8.1 NNE 15 24 8 13 - - 0.0
01/03:00pm 19.4 16.1 2.3 32 7.9 NNE 9 20 5 11 - - 0.0
01/02:30pm 19.5 15.7 1.9 31 8.1 N 11 19 6 10 - - 0.0
01/02:00pm 18.8 15.1 2.6 34 7.5 N 11 22 6 12 - - 0.0
01/01:30pm 18.0 14.4 2.7 36 7.1 N 11 19 6 10 - - 0.0
01/01:00pm 17.0 12.7 3.0 39 6.5 N 15 22 8 12 - - 0.0
01/12:30pm 16.3 12.4 3.4 42 6.0 N 13 20 7 11 - - 0.0
01/12:00pm 14.9 10.7 4.0 48 5.0 NNE 15 20 8 11 - - 0.0
01/11:30am 14.7 11.4 4.7 51 4.7 NNE 11 19 6 10 - - 0.0
01/11:00am 13.9 10.6 4.5 53 4.4 NNE 11 19 6 10 - - 0.0
01/10:30am 11.4 8.0 3.9 60 3.4 NNE 11 19 6 10 - - 0.0
01/10:00am 10.4 7.0 3.9 64 2.9 ENE 11 17 6 9 - - 0.0
01/09:30am 8.9 5.7 3.3 68 2.4 NE 9 15 5 8 - - 0.0
01/09:00am 7.1 3.5 2.8 74 1.8 NE 11 17 6 9 - - 0.0
01/08:30am 5.4 2.1 2.2 80 1.3 ENE 9 13 5 7 - - 0.0
01/08:00am 3.2 0.1 1.4 88 0.7 ENE 7 13 4 7 - - 0.0
01/07:30am 1.6 -2.0 0.7 94 0.3 ENE 9 11 5 6 - - 0.0
01/07:00am 1.0 -2.3 0.1 94 0.3 ENE 7 9 4 5 - - 0.0
01/06:30am 1.6 -1.6 0.7 94 0.3 ENE 7 9 4 5 - - 0.0
01/06:00am 1.5 -1.7 0.5 93 0.4 ENE 7 11 4 6 - - 0.0
01/05:30am 1.8 -1.8 0.8 93 0.4 ENE 9 9 5 5 - - 0.0
01/05:00am 1.7 -1.5 0.5 92 0.4 ENE 7 11 4 6 - - 0.0
01/04:30am 2.0 -1.6 0.8 92 0.5 ENE 9 11 5 6 - - 0.0
01/04:00am 2.0 -1.2 0.8 92 0.5 ENE 7 9 4 5 - - 0.0
01/03:30am 2.2 -1.0 0.9 91 0.5 ENE 7 7 4 4 - - 0.0
01/03:00am 2.4 -0.8 0.8 89 0.6 E 7 9 4 5 - - 0.0
01/02:30am 2.5 -0.7 0.7 88 0.7 E 7 9 4 5 - - 0.0
01/02:00am 2.5 -0.7 0.9 89 0.6 E 7 9 4 5 - - 0.0
01/01:30am 3.3 0.2 1.3 87 0.8 E 7 11 4 6 - - 0.0
01/01:00am 3.8 0.3 1.5 85 0.9 E 9 11 5 6 - - 0.0
01/12:30am 3.8 0.7 1.5 85 0.9 E 7 9 4 5 - - 0.0
01/12:00am 3.5 0.4 1.4 86 0.8 E 7 11 4 6 - - 0.0
 
Date/Time
EST
Temp
°C
App
Temp
°C
Dew
Point
Rel
Hum
%
Delta-T
°C
Wind Press
QNH
hPa
Press
MSL
hPa
Rain
since 9 am
mm
Dir
 
Spd
km/h
Gust
km/h
Spd
kts
Gust
kts
31/11:30pm 3.9 0.4 1.4 84 1.0 E 9 9 5 5 - - 0.0
31/11:00pm 4.2 1.1 1.6 83 1.0 E 7 9 4 5 - - 0.0
31/10:30pm 4.5 1.0 1.5 81 1.2 E 9 11 5 6 - - 0.0
31/10:00pm 5.4 2.0 1.9 78 1.4 E 9 11 5 6 - - 0.0
31/09:30pm 6.3 3.0 2.6 77 1.5 E 9 11 5 6 - - 0.0
31/09:00pm 6.9 4.0 2.8 75 1.7 E 7 9 4 5 - - 0.0
31/08:30pm 6.8 4.2 3.1 77 1.6 ESE 6 7 3 4 - - 0.0
31/08:00pm 8.1 5.9 3.4 72 2.0 E 4 7 2 4 - - 0.0
31/07:30pm 7.9 6.4 3.0 71 2.1 CALM 0 0 0 0 - - 0.0
31/07:00pm 8.8 6.0 3.4 69 2.3 SSE 7 11 4 6 - - 0.0

Other Formats:

Comma delimited format used in spreadsheet applications
http://www.bom.gov.au/fwo/IDV60801/IDV60801.95835.axf

JavaScript Object Notation format (JSON) in row-major order
http://www.bom.gov.au/fwo/IDV60801/IDV60801.95835.json